Flight Track Log - Related Links

Times and Time Zones

All times are in EDT time to prevent confusion due to time zone crossing. See the EJA122 flight status page for this flight to view local times or setup timezone preferences in your user account.

Time Position Orientation Groundspeed Altitude Reporting Facility
EDT Latitude Longitude Course Direction KTS MPH feet Rate Location/Type
Sun 11:24:52 AM 39.1833 -76.7167 211° Southwest 201 231 3,700  Level Potomac TRACON
Sun 11:25:52 AM 39.1833 -76.8000 270° West 243 280 7,300 3,346 Climbing Potomac TRACON
Sun 11:27:28 AM 39.2100 -76.9444 283° West 269 310 12,400 3,025 Climbing Washington Center
Sun 11:27:53 AM 39.2167 -77.0000 279° West 271 312 13,400 1,765 Climbing Potomac TRACON
Sun 11:28:53 AM 39.2167 -77.1000 270° West 322 371 14,900 1,289 Climbing Potomac TRACON
Sun 11:29:54 AM 39.1667 -77.2000 237° Southwest 356 410 16,000 545 Climbing Potomac TRACON
Sun 11:30:00 AM 39.0470 -77.2727 211° Southwest  Level FlightAware Approximate
Sun 11:30:54 AM 39.0667 -77.2667 207° Southwest 374 430 16,000  Level Potomac TRACON
Sun 11:31:54 AM 38.9833 -77.3333 212° Southwest 379 436 16,000 -400 Level Potomac TRACON
Sun 11:32:54 AM 38.8833 -77.3667 195° South 377 434 15,200 -1,208 Descending Potomac TRACON
Sun 11:34:28 AM 38.7267 -77.3986 189° South 386 444 12,900 -1,247 Descending Washington Center
Sun 11:35:28 AM 38.6325 -77.4361 197° South 381 438 12,000 -700 Descending Washington Center
Sun 11:36:28 AM 38.5436 -77.5083 212° Southwest 351 404 11,500 -1,100 Descending Washington Center
Sun 11:37:28 AM 38.5089 -77.5975 244° Southwest 307 353 9,800 -1,750 Descending Washington Center
Sun 11:38:28 AM 38.4761 -77.6789 243° Southwest 290 334 8,000 -900 Descending Washington Center
Sun 11:39:28 AM 38.4394 -77.7600 240° Southwest 273 314 8,000  Level Washington Center
Sun 11:40:28 AM 38.4067 -77.8439 244° Southwest 267 307 8,000  Level Washington Center
Sun 11:41:28 AM 38.3675 -77.9275 239° Southwest 262 302 8,000 -300 Level Washington Center
Sun 11:42:28 AM 38.3325 -78.0111 242° Southwest 262 302 7,400 -1,100 Descending Washington Center
Sun 11:43:28 AM 38.2994 -78.0892 242° Southwest 262 302 5,800 -1,200 Descending Washington Center
Sun 11:44:28 AM 38.2644 -78.1700 241° Southwest 262 302 5,000 -800 Descending Washington Center
Sun 11:45:28 AM 38.2275 -78.2322 233° Southwest 257 296 4,200 -1,050 Descending Washington Center
Sun 11:46:28 AM 38.1758 -78.3122 231° Southwest 269 310 2,900 -656 Descending Washington Center
Sun 11:48:40 AM 38.0833 -78.4167 222° Southwest 177 204 2,100 -455 Descending Potomac TRACON
Sun 11:49:46 AM 38.1000 -78.4667 293° West 145 167 1,400 -636 Descending Potomac TRACON
Sun 11:51:00 AM 38.1333 -78.4500 21° North  Level FlightAware Approximate
Sun 11:58:00 AM 38.1386 -78.4529 21° North  Level Estimated
Sun 11:59:00 AM 38.1333 -78.4500 21° North  Level FlightAware Approximate
Sun 12:00:00 PM 38.1386 -78.4529 21° North  Level Estimated

Login

Don't have an account? Register now (free) for customized features, flight alerts, and more!